Time;durP1;ratioP1;P1;durP2;ratioP2;P2;SDS_P1;SDS_P2;PMS_P1;PMS_P2;Temp;Humidity;BMP_temperature;BMP_pressure;BME280_temperature;BME280_humidity;BME280_pressure;Samples;Min_cycle;Max_cycle;Signal;HPM_P1;HPM_P2
2023/04/01 00:01:37;;;;;;;4.35;2.17;;;19.10;53.40;;;;;;5029985;28;20211;-55
2023/04/01 00:04:09;;;;;;;2.30;1.70;;;19.10;53.50;;;;;;5033645;28;20194;-54
2023/04/01 00:06:40;;;;;;;3.28;1.83;;;19.10;53.50;;;;;;5050199;28;20666;-56
2023/04/01 00:09:11;;;;;;;4.93;2.05;;;19.10;53.40;;;;;;5045369;28;20225;-55
2023/04/01 00:11:41;;;;;;;3.58;1.75;;;19.20;53.40;;;;;;5030584;28;20228;-56
2023/04/01 00:14:12;;;;;;;3.78;1.88;;;19.10;53.30;;;;;;5030681;28;20200;-58
2023/04/01 00:16:43;;;;;;;3.50;1.98;;;19.20;53.30;;;;;;5030377;28;20205;-57
2023/04/01 00:19:15;;;;;;;2.70;1.77;;;19.10;53.30;;;;;;5029116;28;20219;-54
2023/04/01 00:21:46;;;;;;;3.20;1.85;;;19.20;53.30;;;;;;5046094;28;20213;-54
2023/04/01 00:24:17;;;;;;;3.30;1.58;;;19.20;53.30;;;;;;5049550;28;20196;-55
2023/04/01 00:26:47;;;;;;;3.58;1.67;;;19.20;53.40;;;;;;5048792;28;20199;-55
2023/04/01 00:29:18;;;;;;;2.17;1.60;;;19.20;53.40;;;;;;5049610;28;20219;-55
2023/04/01 00:31:49;;;;;;;3.55;1.80;;;19.20;53.40;;;;;;5048572;28;20646;-55
2023/04/01 00:34:21;;;;;;;3.53;1.73;;;19.20;53.40;;;;;;5049884;28;20187;-56
2023/04/01 00:36:52;;;;;;;2.53;2.08;;;19.20;53.50;;;;;;5030482;28;20203;-57
2023/04/01 00:39:23;;;;;;;3.97;1.90;;;19.20;53.50;;;;;;5055205;28;20220;-53
2023/04/01 00:41:54;;;;;;;2.42;1.75;;;19.30;53.50;;;;;;5036934;28;20219;-54
2023/04/01 00:44:29;;;;;;;3.00;1.83;;;19.30;53.50;;;;;;5050281;28;20189;-55
2023/04/01 00:47:00;;;;;;;2.60;1.75;;;19.30;53.50;;;;;;5055252;28;20195;-55
2023/04/01 00:49:35;;;;;;;3.05;1.80;;;19.30;53.50;;;;;;5060922;28;20212;-54
2023/04/01 00:52:08;;;;;;;2.53;1.60;;;19.30;53.40;;;;;;5046419;28;20234;-54
2023/04/01 00:54:41;;;;;;;1.83;1.40;;;19.40;53.50;;;;;;5048035;28;20195;-55
2023/04/01 00:57:15;;;;;;;3.55;1.75;;;19.30;53.40;;;;;;5033665;28;20242;-52
2023/04/01 00:59:49;;;;;;;3.33;1.73;;;19.40;53.50;;;;;;5038840;28;20203;-52
2023/04/01 01:02:21;;;;;;;2.08;1.60;;;19.40;53.60;;;;;;5053330;28;20651;-52
2023/04/01 01:04:54;;;;;;;3.33;1.77;;;19.40;53.60;;;;;;5047684;28;20203;-56
2023/04/01 01:07:38;;;;;;;3.20;1.60;;;19.40;53.70;;;;;;5051654;28;20211;-53
2023/04/01 01:10:13;;;;;;;2.88;1.63;;;19.40;53.70;;;;;;5041359;28;20220;-52
2023/04/01 01:12:57;;;;;;;2.75;1.70;;;19.50;53.80;;;;;;5032889;28;20203;-56
2023/04/01 01:15:31;;;;;;;2.08;1.58;;;19.50;53.90;;;;;;5033247;28;20192;-54
2023/04/01 01:18:05;;;;;;;2.83;1.63;;;19.50;53.90;;;;;;5032971;28;20203;-55
2023/04/01 01:21:11;;;;;;;2.17;1.50;;;19.60;54.00;;;;;;5031958;28;20273;-53
2023/04/01 01:24:12;;;;;;;2.70;1.52;;;19.60;54.00;;;;;;5033418;28;20195;-55
2023/04/01 01:26:52;;;;;;;1.90;1.23;;;19.60;53.90;;;;;;5032447;28;20196;-54
2023/04/01 01:30:04;;;;;;;2.35;1.90;;;19.70;54.00;;;;;;5034143;28;20778;-54
2023/04/01 01:32:50;;;;;;;2.45;1.55;;;19.70;54.00;;;;;;5052864;28;20238;-52
2023/04/01 01:35:26;;;;;;;1.90;1.50;;;19.70;54.00;;;;;;5052867;28;20195;-56
2023/04/01 01:38:02;;;;;;;3.20;1.80;;;19.80;54.20;;;;;;5052503;28;20199;-53
2023/04/01 01:40:36;;;;;;;2.70;1.85;;;19.80;54.30;;;;;;5041822;28;20235;-52
2023/04/01 01:43:11;;;;;;;1.92;1.40;;;19.80;54.30;;;;;;5032341;28;20192;-53
2023/04/01 01:45:46;;;;;;;2.25;1.60;;;19.80;54.40;;;;;;5032479;28;20192;-55
2023/04/01 01:48:19;;;;;;;2.15;1.48;;;19.90;54.50;;;;;;5032261;28;20563;-55
2023/04/01 01:50:53;;;;;;;2.30;1.35;;;19.90;54.50;;;;;;5032215;28;20234;-53
2023/04/01 01:53:24;;;;;;;3.47;1.58;;;19.90;54.50;;;;;;5031924;28;20192;-56
2023/04/01 01:55:55;;;;;;;2.35;1.50;;;20.00;54.60;;;;;;5032114;28;20204;-54
2023/04/01 01:58:29;;;;;;;1.92;1.42;;;20.10;54.70;;;;;;5032318;28;20370;-54
2023/04/01 02:01:02;;;;;;;1.88;1.55;;;20.10;54.80;;;;;;5032110;28;20196;-56
2023/04/01 02:03:36;;;;;;;3.70;1.67;;;20.10;54.80;;;;;;5031020;28;20587;-54
2023/04/01 02:06:12;;;;;;;1.83;1.30;;;20.20;54.90;;;;;;5033064;28;20196;-55
2023/04/01 02:08:46;;;;;;;1.45;1.13;;;20.30;55.00;;;;;;5031693;28;20309;-56
2023/04/01 02:11:18;;;;;;;3.17;1.63;;;20.30;55.00;;;;;;5032270;28;20224;-57
2023/04/01 02:13:54;;;;;;;2.80;1.50;;;20.40;55.00;;;;;;5032495;28;20207;-54
2023/04/01 02:16:30;;;;;;;3.17;1.80;;;20.40;55.10;;;;;;5031028;28;20281;-55
2023/04/01 02:19:02;;;;;;;2.15;1.33;;;20.50;55.10;;;;;;5032371;28;20583;-56
2023/04/01 02:21:35;;;;;;;2.00;1.30;;;20.50;55.10;;;;;;5031962;28;20215;-56
2023/04/01 02:24:10;;;;;;;2.63;1.52;;;20.60;55.20;;;;;;5035552;28;20203;-56
2023/04/01 02:26:41;;;;;;;3.22;1.40;;;20.60;55.10;;;;;;5051076;28;20190;-55
2023/04/01 02:29:14;;;;;;;2.55;1.58;;;20.70;55.20;;;;;;5050657;28;20215;-57
2023/04/01 02:31:45;;;;;;;2.75;1.30;;;20.70;55.30;;;;;;5050245;28;20219;-56
2023/04/01 02:34:16;;;;;;;1.30;1.10;;;20.80;55.30;;;;;;5051289;28;20574;-57
2023/04/01 02:36:50;;;;;;;1.85;1.25;;;20.80;55.30;;;;;;5034295;28;20200;-55
2023/04/01 02:39:21;;;;;;;3.33;1.60;;;20.90;55.50;;;;;;5042100;28;20222;-54
2023/04/01 02:41:52;;;;;;;2.63;1.27;;;20.90;55.50;;;;;;5035743;28;20192;-56
2023/04/01 02:44:22;;;;;;;1.88;1.52;;;20.90;55.50;;;;;;5044498;28;20195;-55
2023/04/01 02:46:53;;;;;;;3.03;1.33;;;21.00;55.60;;;;;;5053574;28;20195;-56
2023/04/01 02:49:24;;;;;;;2.25;1.15;;;21.10;55.70;;;;;;5050883;28;20215;-56
2023/04/01 02:51:56;;;;;;;1.73;1.20;;;21.10;55.70;;;;;;5036867;28;20223;-56
2023/04/01 02:54:27;;;;;;;2.65;1.30;;;21.20;55.80;;;;;;5051752;28;20199;-57
2023/04/01 02:56:58;;;;;;;1.80;1.25;;;21.30;55.80;;;;;;5032510;28;20639;-55
2023/04/01 02:59:28;;;;;;;1.30;1.20;;;21.30;55.80;;;;;;5031324;28;20675;-56
2023/04/01 03:01:59;;;;;;;2.35;1.35;;;21.40;55.80;;;;;;5048398;28;20271;-55
2023/04/01 03:04:30;;;;;;;1.88;1.00;;;21.40;55.80;;;;;;5050833;28;20195;-56
2023/04/01 03:07:02;;;;;;;1.17;0.90;;;21.50;55.80;;;;;;5033266;28;20668;-55
2023/04/01 03:09:33;;;;;;;1.27;1.02;;;21.50;55.80;;;;;;5029855;28;20220;-56
2023/04/01 03:12:03;;;;;;;2.10;1.20;;;21.60;55.90;;;;;;5031048;28;20224;-56
2023/04/01 03:14:34;;;;;;;2.58;1.00;;;21.70;55.90;;;;;;5031659;28;20649;-56
2023/04/01 03:17:05;;;;;;;1.80;0.90;;;21.70;55.80;;;;;;5031077;28;20652;-55
2023/04/01 03:19:36;;;;;;;1.33;0.88;;;21.80;55.90;;;;;;5030947;28;20235;-56
2023/04/01 03:22:08;;;;;;;0.52;0.40;;;21.80;55.80;;;;;;5030232;28;20196;-57
2023/04/01 03:24:39;;;;;;;0.45;0.35;;;21.90;56.30;;;;;;5030219;28;20203;-58
2023/04/01 03:27:09;;;;;;;0.70;0.30;;;22.00;56.60;;;;;;5030350;28;20192;-58
2023/04/01 03:29:40;;;;;;;0.50;0.30;;;22.10;56.60;;;;;;5030953;28;20273;-58
2023/04/01 03:32:11;;;;;;;1.90;0.60;;;22.20;56.30;;;;;;5030447;28;20255;-57
2023/04/01 03:34:41;;;;;;;0.30;0.20;;;22.40;56.10;;;;;;5033389;28;20204;-56
2023/04/01 03:37:14;;;;;;;2.83;0.47;;;22.50;56.00;;;;;;5050890;28;20195;-56
2023/04/01 03:39:45;;;;;;;0.20;0.20;;;22.50;55.90;;;;;;5050944;28;20219;-56
2023/04/01 03:42:16;;;;;;;0.55;0.30;;;22.60;55.80;;;;;;5051349;28;20647;-56
2023/04/01 03:44:46;;;;;;;0.20;0.20;;;22.70;55.70;;;;;;5050955;28;20202;-57
2023/04/01 03:47:17;;;;;;;0.65;0.30;;;22.80;55.60;;;;;;5050955;28;20203;-56
2023/04/01 03:49:48;;;;;;;0.43;0.43;;;22.80;55.50;;;;;;5050720;28;20683;-57
2023/04/01 03:52:20;;;;;;;0.32;0.30;;;22.90;56.00;;;;;;5050682;28;20266;-56
2023/04/01 03:54:51;;;;;;;3.60;0.50;;;22.90;55.30;;;;;;5051082;28;20199;-56
2023/04/01 03:57:21;;;;;;;0.50;0.32;;;23.00;55.30;;;;;;5050998;28;20214;-57
2023/04/01 03:59:52;;;;;;;0.35;0.28;;;23.00;55.10;;;;;;5051290;28;20223;-56
2023/04/01 04:02:23;;;;;;;0.30;0.30;;;23.00;55.00;;;;;;5051189;28;20196;-56
2023/04/01 04:04:53;;;;;;;0.30;0.30;;;23.10;55.00;;;;;;5051316;28;20204;-56
2023/04/01 04:07:26;;;;;;;0.20;0.20;;;23.10;55.00;;;;;;5051229;28;20671;-57
2023/04/01 04:09:57;;;;;;;0.60;0.45;;;23.20;55.00;;;;;;5050650;28;20215;-57
2023/04/01 04:12:27;;;;;;;0.77;0.40;;;23.20;54.80;;;;;;5050949;28;20259;-58
2023/04/01 04:14:58;;;;;;;0.73;0.50;;;23.20;54.80;;;;;;5051233;28;20200;-58
2023/04/01 04:17:29;;;;;;;0.52;0.35;;;23.30;54.80;;;;;;5054623;28;20203;-56
2023/04/01 04:19:59;;;;;;;0.60;0.40;;;23.30;54.70;;;;;;5051218;28;20203;-56
2023/04/01 04:22:32;;;;;;;0.60;0.40;;;23.30;54.70;;;;;;5034746;28;20647;-57
2023/04/01 04:25:02;;;;;;;1.92;0.40;;;23.40;54.60;;;;;;5034573;28;20687;-57
2023/04/01 04:27:33;;;;;;;0.30;0.30;;;23.40;54.60;;;;;;5034373;28;20556;-56
2023/04/01 04:30:04;;;;;;;1.05;0.40;;;23.50;54.60;;;;;;5034477;28;20239;-57
2023/04/01 04:32:34;;;;;;;0.95;0.30;;;23.50;54.50;;;;;;5034493;28;20231;-56
2023/04/01 04:35:06;;;;;;;0.85;0.30;;;23.50;54.40;;;;;;5040270;28;20207;-57
2023/04/01 04:37:38;;;;;;;1.52;0.30;;;23.50;54.30;;;;;;5051918;28;20556;-56
2023/04/01 04:40:10;;;;;;;0.25;0.20;;;23.60;54.30;;;;;;5053617;28;20215;-56
2023/04/01 04:42:41;;;;;;;1.05;0.30;;;23.70;54.20;;;;;;5053574;28;20191;-56
2023/04/01 04:45:13;;;;;;;0.15;0.15;;;23.60;54.10;;;;;;5067859;28;20195;-55
2023/04/01 04:47:43;;;;;;;0.30;0.30;;;23.70;54.10;;;;;;5074358;28;20256;-57
2023/04/01 04:50:14;;;;;;;1.23;0.38;;;23.70;54.10;;;;;;5074125;28;20214;-56
2023/04/01 04:52:47;;;;;;;0.20;0.20;;;23.80;54.10;;;;;;5070611;28;20222;-57
2023/04/01 04:55:17;;;;;;;0.47;0.30;;;23.80;54.00;;;;;;5072881;28;20191;-53
2023/04/01 04:57:48;;;;;;;0.88;0.30;;;23.80;53.90;;;;;;5068970;28;20655;-55
2023/04/01 05:00:19;;;;;;;0.32;0.30;;;23.80;53.80;;;;;;5073286;28;20313;-55
2023/04/01 05:02:50;;;;;;;1.35;0.40;;;23.90;53.80;;;;;;5073737;28;20203;-56
2023/04/01 05:05:20;;;;;;;0.85;0.40;;;23.90;53.70;;;;;;5066111;28;20650;-57
2023/04/01 05:07:53;;;;;;;0.50;0.30;;;23.90;53.70;;;;;;5053506;28;20195;-55
2023/04/01 05:10:24;;;;;;;0.40;0.20;;;23.90;53.70;;;;;;5053646;28;20215;-56
2023/04/01 05:12:54;;;;;;;0.30;0.30;;;23.90;53.60;;;;;;5053939;28;20230;-55
2023/04/01 05:15:25;;;;;;;1.98;0.52;;;24.00;53.60;;;;;;5054064;28;20678;-57
2023/04/01 05:17:56;;;;;;;0.73;0.30;;;24.00;53.60;;;;;;5054222;28;20199;-56
2023/04/01 05:20:26;;;;;;;0.77;0.40;;;24.00;53.50;;;;;;5053815;28;20223;-55
2023/04/01 05:23:02;;;;;;;0.40;0.30;;;24.00;53.50;;;;;;5053556;28;20206;-53
2023/04/01 05:25:32;;;;;;;0.57;0.38;;;24.10;53.50;;;;;;5053226;28;20203;-57
2023/04/01 05:28:03;;;;;;;0.20;0.20;;;24.10;53.50;;;;;;5052258;28;20208;-56
2023/04/01 05:30:34;;;;;;;0.57;0.28;;;24.10;53.50;;;;;;5053580;28;20215;-58
2023/04/01 05:33:04;;;;;;;0.60;0.38;;;24.10;53.40;;;;;;5053518;28;20223;-54
2023/04/01 05:35:35;;;;;;;1.15;0.40;;;24.20;53.40;;;;;;5053205;28;20203;-57
2023/04/01 05:38:08;;;;;;;0.55;0.30;;;24.20;53.40;;;;;;5053029;28;20199;-55
2023/04/01 05:40:38;;;;;;;0.40;0.40;;;24.20;53.30;;;;;;5053209;28;20215;-57
2023/04/01 05:43:09;;;;;;;0.38;0.30;;;24.20;53.30;;;;;;5053653;28;20325;-57
2023/04/01 05:45:40;;;;;;;0.38;0.20;;;24.20;53.30;;;;;;5053265;28;20196;-57
2023/04/01 05:48:10;;;;;;;0.63;0.30;;;24.20;53.30;;;;;;5052786;28;20199;-57
2023/04/01 05:50:43;;;;;;;0.45;0.40;;;24.20;53.30;;;;;;5052713;28;20219;-57
2023/04/01 05:53:16;;;;;;;0.45;0.38;;;24.20;53.30;;;;;;5052575;28;20227;-57
2023/04/01 05:55:46;;;;;;;0.77;0.40;;;24.20;53.20;;;;;;5052757;28;20605;-53
2023/04/01 05:58:17;;;;;;;0.57;0.20;;;24.20;53.80;;;;;;5052493;28;20210;-56
2023/04/01 06:00:48;;;;;;;0.30;0.30;;;24.20;53.10;;;;;;5053021;28;20671;-57
2023/04/01 06:03:18;;;;;;;1.13;0.38;;;24.20;53.10;;;;;;5052843;28;20589;-54
2023/04/01 06:05:49;;;;;;;0.60;0.28;;;24.30;53.20;;;;;;5052752;28;20795;-56
2023/04/01 06:08:22;;;;;;;0.30;0.20;;;24.20;53.10;;;;;;5052541;28;20196;-57
2023/04/01 06:11:15;;;;;;;0.93;0.40;;;24.30;53.20;;;;;;5051869;28;20566;-51
2023/04/01 06:14:00;;;;;;;0.98;0.43;;;24.30;53.10;;;;;;5052124;28;20258;-61
2023/04/01 06:16:41;;;;;;;0.77;0.40;;;24.30;52.50;;;;;;5052883;28;20554;-54
2023/04/01 06:19:27;;;;;;;1.35;0.40;;;24.20;51.60;;;;;;5043966;28;20216;-54
2023/04/01 06:22:28;;;;;;;0.50;0.40;;;24.10;51.40;;;;;;5032296;28;20211;-56
2023/04/01 06:25:32;;;;;;;1.92;0.40;;;24.10;51.50;;;;;;5025824;28;20207;-53
2023/04/01 06:28:26;;;;;;;0.65;0.35;;;24.00;51.60;;;;;;5022203;28;20196;-55
2023/04/01 06:31:03;;;;;;;1.08;0.32;;;24.00;51.90;;;;;;5032129;28;20200;-52
2023/04/01 06:33:55;;;;;;;2.05;0.38;;;24.00;52.00;;;;;;5032025;28;20230;-55
2023/04/01 06:36:45;;;;;;;0.50;0.22;;;24.00;52.20;;;;;;5048799;28;20203;-56
2023/04/01 06:39:45;;;;;;;0.65;0.30;;;24.00;52.20;;;;;;5050935;28;20259;-51
2023/04/01 06:42:39;;;;;;;0.45;0.38;;;24.00;52.30;;;;;;5052302;28;20199;-52
2023/04/01 06:45:20;;;;;;;0.88;0.32;;;23.90;52.30;;;;;;5052281;28;20500;-55
2023/04/01 06:48:03;;;;;;;3.47;0.40;;;24.00;52.30;;;;;;5052088;28;20191;-57
2023/04/01 06:50:38;;;;;;;0.93;0.20;;;23.90;52.20;;;;;;5053929;28;20219;-50
2023/04/01 06:53:15;;;;;;;0.68;0.30;;;23.90;52.10;;;;;;5050719;28;20214;-53
2023/04/01 06:55:48;;;;;;;0.63;0.22;;;23.90;52.10;;;;;;5051622;28;20198;-53
2023/04/01 06:58:25;;;;;;;0.63;0.30;;;23.90;52.10;;;;;;5051445;28;20213;-54
2023/04/01 07:01:00;;;;;;;0.47;0.30;;;23.90;52.10;;;;;;5051387;28;20198;-51
2023/04/01 07:03:35;;;;;;;0.75;0.60;;;23.90;52.10;;;;;;5051526;28;20265;-51
2023/04/01 07:06:08;;;;;;;0.57;0.30;;;23.90;52.00;;;;;;5051857;28;20679;-54
2023/04/01 07:08:42;;;;;;;0.30;0.30;;;23.90;52.00;;;;;;5051365;28;20226;-50
2023/04/01 07:11:18;;;;;;;0.25;0.25;;;23.90;52.00;;;;;;5051392;28;20214;-52
2023/04/01 07:13:54;;;;;;;0.45;0.40;;;23.90;52.00;;;;;;5051698;28;20235;-52
2023/04/01 07:16:32;;;;;;;0.63;0.20;;;23.80;52.00;;;;;;5052124;28;20230;-54
2023/04/01 07:19:07;;;;;;;0.73;0.28;;;23.80;52.00;;;;;;5051454;28;20219;-52
2023/04/01 07:21:43;;;;;;;0.50;0.28;;;23.80;52.00;;;;;;5051315;28;21051;-54
2023/04/01 07:24:19;;;;;;;0.65;0.30;;;23.80;52.00;;;;;;5051284;28;20210;-53
2023/04/01 07:26:52;;;;;;;1.42;0.25;;;23.80;52.00;;;;;;5050696;28;20221;-55
2023/04/01 07:29:24;;;;;;;0.20;0.20;;;23.80;52.00;;;;;;5050765;28;20215;-53
2023/04/01 07:32:15;;;;;;;1.08;0.28;;;23.80;52.00;;;;;;5051000;28;20222;-54
2023/04/01 07:34:58;;;;;;;0.98;0.30;;;23.80;51.90;;;;;;5051048;28;20196;-52
2023/04/01 07:37:33;;;;;;;0.75;0.30;;;23.80;51.90;;;;;;5051035;28;20195;-51
2023/04/01 07:40:18;;;;;;;1.75;0.20;;;23.80;51.80;;;;;;5051109;28;20219;-55
2023/04/01 07:43:04;;;;;;;0.22;0.22;;;23.80;51.80;;;;;;5050802;28;20195;-55
2023/04/01 07:45:42;;;;;;;0.30;0.20;;;23.80;51.80;;;;;;5050859;28;20202;-56
2023/04/01 07:48:28;;;;;;;0.30;0.30;;;23.70;51.70;;;;;;5050884;28;20663;-55
2023/04/01 07:51:04;;;;;;;0.50;0.30;;;23.70;51.70;;;;;;5053019;28;20199;-56
2023/04/01 07:53:40;;;;;;;0.88;0.30;;;23.70;51.70;;;;;;5055043;28;20223;-55
2023/04/01 07:56:13;;;;;;;0.40;0.30;;;23.70;51.70;;;;;;5054878;28;20725;-55
2023/04/01 07:58:59;;;;;;;0.75;0.30;;;23.70;51.80;;;;;;5054939;28;20223;-57
2023/04/01 08:01:35;;;;;;;0.45;0.22;;;23.70;51.80;;;;;;5054464;28;20202;-57
2023/04/01 08:04:26;;;;;;;0.93;0.30;;;23.70;51.90;;;;;;5055008;28;20226;-55
2023/04/01 08:07:05;;;;;;;0.43;0.30;;;23.70;51.90;;;;;;5038261;28;20200;-53
2023/04/01 08:09:43;;;;;;;0.30;0.15;;;23.60;51.80;;;;;;5035513;28;20619;-56
2023/04/01 08:12:24;;;;;;;0.45;0.30;;;23.60;51.80;;;;;;5037138;28;20238;-56
2023/04/01 08:15:10;;;;;;;0.30;0.30;;;23.60;51.80;;;;;;5034596;28;20189;-52
2023/04/01 08:17:49;;;;;;;0.40;0.40;;;23.60;51.80;;;;;;5034193;28;20203;-57
2023/04/01 08:20:32;;;;;;;1.25;0.50;;;23.60;51.80;;;;;;5048488;28;20420;-53
2023/04/01 08:23:09;;;;;;;0.50;0.50;;;23.60;51.80;;;;;;5053555;28;20200;-56
2023/04/01 08:25:42;;;;;;;0.93;0.40;;;23.60;51.80;;;;;;5038854;28;20273;-55
2023/04/01 08:28:20;;;;;;;0.93;0.40;;;23.50;51.80;;;;;;5033734;28;20200;-52
2023/04/01 08:30:54;;;;;;;0.43;0.30;;;23.50;51.80;;;;;;5034650;28;20200;-54
2023/04/01 08:33:29;;;;;;;0.60;0.22;;;23.50;51.80;;;;;;5033852;28;20227;-50
2023/04/01 08:36:05;;;;;;;0.45;0.30;;;23.50;51.80;;;;;;5047015;28;20615;-56
2023/04/01 08:38:42;;;;;;;0.60;0.30;;;23.50;51.80;;;;;;5050718;28;20195;-53
2023/04/01 08:41:36;;;;;;;0.80;0.40;;;23.40;51.80;;;;;;5057474;28;20265;-52
2023/04/01 08:44:33;;;;;;;0.32;0.30;;;23.50;51.90;;;;;;5060138;28;20192;-54
2023/04/01 08:47:35;;;;;;;0.93;0.40;;;23.40;51.80;;;;;;5033576;28;20301;-57
2023/04/01 08:50:35;;;;;;;0.85;0.40;;;23.40;51.80;;;;;;5033499;28;20216;-52
2023/04/01 08:53:14;;;;;;;0.55;0.30;;;23.40;51.80;;;;;;5033218;28;20257;-54
2023/04/01 08:55:58;;;;;;;0.80;0.40;;;23.40;51.80;;;;;;5049255;28;20202;-54
2023/04/01 08:58:46;;;;;;;0.70;0.40;;;23.40;51.80;;;;;;5053337;28;20187;-57
2023/04/01 09:01:27;;;;;;;1.05;0.30;;;23.40;51.80;;;;;;5041065;28;20195;-56
2023/04/01 09:04:35;;;;;;;0.77;0.40;;;23.30;51.70;;;;;;5053573;28;20198;-56
2023/04/01 09:07:22;;;;;;;0.75;0.50;;;23.30;51.70;;;;;;5032952;28;20202;-54
2023/04/01 09:10:39;;;;;;;0.98;0.40;;;23.30;51.70;;;;;;5032583;28;20239;-57
2023/04/01 09:13:38;;;;;;;0.55;0.32;;;23.30;51.70;;;;;;5018825;28;20236;-57
2023/04/01 09:16:39;;;;;;;1.33;0.50;;;23.30;51.70;;;;;;5042106;28;20188;-53
2023/04/01 09:19:22;;;;;;;0.75;0.40;;;23.20;51.70;;;;;;5042672;28;20220;-55
2023/04/01 09:22:20;;;;;;;1.08;0.45;;;23.20;51.70;;;;;;5038548;28;20207;-53
2023/04/01 09:25:22;;;;;;;0.20;0.20;;;23.20;51.70;;;;;;5033524;28;20196;-52
2023/04/01 09:27:59;;;;;;;0.20;0.20;;;23.10;51.70;;;;;;5032768;28;20202;-54
2023/04/01 09:30:42;;;;;;;0.38;0.38;;;23.20;51.70;;;;;;5034334;28;20239;-58
2023/04/01 09:33:45;;;;;;;0.25;0.25;;;23.10;51.60;;;;;;5033965;28;20714;-55
2023/04/01 09:36:29;;;;;;;1.00;0.35;;;23.10;51.60;;;;;;5042076;28;20210;-56
2023/04/01 09:39:14;;;;;;;0.60;0.30;;;23.10;51.50;;;;;;5031821;28;20888;-54
2023/04/01 09:41:57;;;;;;;0.60;0.20;;;23.10;51.50;;;;;;5033180;28;20196;-51
2023/04/01 09:44:37;;;;;;;0.30;0.30;;;23.10;51.60;;;;;;5033194;28;20199;-54
2023/04/01 09:47:28;;;;;;;0.30;0.30;;;23.00;51.50;;;;;;5032846;28;20200;-56
2023/04/01 09:50:28;;;;;;;0.57;0.30;;;23.00;51.50;;;;;;5050987;28;20211;-54
2023/04/01 09:53:15;;;;;;;0.60;0.28;;;23.00;51.50;;;;;;5055982;28;20219;-55
2023/04/01 09:56:22;;;;;;;0.52;0.38;;;23.00;51.50;;;;;;5051674;28;20193;-56
2023/04/01 09:59:26;;;;;;;0.98;0.28;;;22.90;51.50;;;;;;5032566;28;20281;-55
2023/04/01 10:02:37;;;;;;;0.45;0.30;;;22.90;51.50;;;;;;5010367;28;20258;-53
2023/04/01 10:05:50;;;;;;;0.60;0.30;;;22.90;51.50;;;;;;5033370;28;20192;-54
2023/04/01 10:08:59;;;;;;;0.30;0.30;;;22.90;51.50;;;;;;5032171;28;20640;-54
2023/04/01 10:12:00;;;;;;;0.30;0.30;;;22.90;51.50;;;;;;4975844;28;20214;-55
2023/04/01 10:15:13;;;;;;;0.65;0.35;;;22.90;51.50;;;;;;5030763;28;20228;-53
2023/04/01 10:18:22;;;;;;;0.30;0.20;;;22.80;51.40;;;;;;5032015;28;20836;-54
2023/04/01 10:21:17;;;;;;;0.90;0.40;;;22.80;51.40;;;;;;5031479;28;20196;-55
2023/04/01 10:24:20;;;;;;;0.55;0.22;;;22.80;51.40;;;;;;5040297;28;20191;-55
2023/04/01 10:27:12;;;;;;;0.82;0.30;;;22.70;51.30;;;;;;5030324;28;20200;-53
2023/04/01 10:30:35;;;;;;;0.73;0.30;;;22.70;51.30;;;;;;5031505;28;20718;-54
2023/04/01 10:33:48;;;;;;;1.10;0.50;;;22.70;51.40;;;;;;5031560;28;20657;-56
2023/04/01 10:36:53;;;;;;;1.05;0.30;;;22.70;51.30;;;;;;5052909;28;20199;-53
2023/04/01 10:39:56;;;;;;;0.70;0.50;;;22.60;51.30;;;;;;5070522;28;20226;-54
2023/04/01 10:43:05;;;;;;;0.80;0.35;;;22.60;51.40;;;;;;5031288;28;20200;-57
2023/04/01 10:49:06;;;;;;;0.57;0.25;;;22.60;51.30;;;;;;5107835;27;21387;-52
2023/04/01 10:52:12;;;;;;;0.40;0.30;;;22.60;51.40;;;;;;5108586;28;20564;-53
2023/04/01 10:54:51;;;;;;;1.08;0.40;;;22.60;51.40;;;;;;5108513;28;20809;-55
2023/04/01 10:58:00;;;;;;;0.90;0.40;;;22.60;51.40;;;;;;5087657;28;20198;-54
2023/04/01 11:01:00;;;;;;;1.10;0.50;;;22.50;51.30;;;;;;5091867;28;20206;-54
2023/04/01 11:04:29;;;;;;;0.45;0.40;;;22.50;51.30;;;;;;5107290;28;20193;-55
2023/04/01 11:07:31;;;;;;;0.55;0.40;;;22.50;51.30;;;;;;4985795;28;20225;-53
2023/04/01 11:10:48;;;;;;;0.35;0.32;;;22.50;51.30;;;;;;5088440;28;20707;-54
2023/04/01 11:13:58;;;;;;;0.43;0.28;;;22.50;51.30;;;;;;5024963;28;20575;-54
2023/04/01 11:17:02;;;;;;;0.32;0.22;;;22.50;51.30;;;;;;5025925;28;20188;-59
2023/04/01 11:20:03;;;;;;;0.70;0.40;;;22.40;51.30;;;;;;5107602;28;20228;-55
2023/04/01 11:23:07;;;;;;;0.60;0.40;;;22.40;51.30;;;;;;5087352;28;20185;-54
2023/04/01 11:25:59;;;;;;;0.38;0.30;;;22.40;51.30;;;;;;5098848;28;20189;-53
2023/04/01 11:28:53;;;;;;;0.40;0.30;;;22.40;51.40;;;;;;5107296;28;20318;-52
2023/04/01 11:31:37;;;;;;;0.32;0.22;;;22.40;51.40;;;;;;5108141;28;20280;-57
2023/04/01 11:34:44;;;;;;;0.45;0.30;;;22.40;51.40;;;;;;5108081;28;20205;-56
2023/04/01 11:37:27;;;;;;;0.30;0.30;;;22.40;51.40;;;;;;5104391;28;21200;-54
2023/04/01 11:40:16;;;;;;;0.20;0.20;;;22.40;51.40;;;;;;5106558;28;20210;-56
2023/04/01 11:42:52;;;;;;;0.60;0.40;;;22.40;51.40;;;;;;5087770;28;20202;-51
2023/04/01 11:45:37;;;;;;;1.17;0.38;;;22.40;51.30;;;;;;5088083;28;20189;-49
2023/04/01 11:48:22;;;;;;;0.73;0.40;;;22.40;51.40;;;;;;5106668;28;20221;-55
2023/04/01 11:51:12;;;;;;;0.82;0.38;;;22.40;51.30;;;;;;5107416;28;20723;-52
2023/04/01 11:53:56;;;;;;;1.75;0.40;;;22.40;51.30;;;;;;5107979;28;20577;-50
2023/04/01 11:56:46;;;;;;;0.32;0.22;;;22.40;51.30;;;;;;5107294;28;20653;-51
2023/04/01 11:59:48;;;;;;;0.93;0.30;;;22.30;51.30;;;;;;5096187;28;20214;-54
2023/04/01 12:02:26;;;;;;;0.30;0.30;;;22.30;51.30;;;;;;5093579;28;20190;-55
2023/04/01 12:05:23;;;;;;;0.57;0.30;;;22.30;51.30;;;;;;5088749;28;20553;-53
2023/04/01 12:08:14;;;;;;;0.50;0.40;;;22.30;51.30;;;;;;5073429;28;20222;-52
2023/04/01 12:10:56;;;;;;;1.08;0.38;;;22.30;51.30;;;;;;5075683;28;20195;-54
2023/04/01 12:13:37;;;;;;;0.50;0.30;;;22.30;51.30;;;;;;5092379;28;20826;-57
2023/04/01 12:16:44;;;;;;;0.68;0.30;;;22.30;51.30;;;;;;5093406;28;20193;-54
2023/04/01 12:19:22;;;;;;;0.30;0.20;;;22.30;51.30;;;;;;5090255;28;20222;-53
2023/04/01 12:22:01;;;;;;;0.75;0.20;;;22.30;51.30;;;;;;5093197;28;20669;-50
2023/04/01 12:24:51;;;;;;;0.40;0.30;;;22.30;51.30;;;;;;5090614;28;20194;-55
2023/04/01 12:27:42;;;;;;;1.02;0.30;;;22.30;51.30;;;;;;5088487;28;20214;-53
2023/04/01 12:31:02;;;;;;;0.70;0.30;;;22.30;51.30;;;;;;5093375;28;20236;-55
2023/04/01 12:33:54;;;;;;;0.45;0.40;;;22.30;51.30;;;;;;5070468;28;20195;-52
2023/04/01 12:36:45;;;;;;;0.60;0.30;;;22.30;51.30;;;;;;5073397;28;20677;-54
2023/04/01 12:39:40;;;;;;;0.38;0.38;;;22.30;51.30;;;;;;5091195;28;20579;-54
2023/04/01 12:42:20;;;;;;;0.30;0.30;;;22.30;51.30;;;;;;5081985;28;20195;-52
2023/04/01 12:45:02;;;;;;;0.40;0.40;;;22.30;51.30;;;;;;5082852;28;20186;-54
2023/04/01 12:48:00;;;;;;;0.30;0.20;;;22.20;51.20;;;;;;5072607;28;20736;-56
2023/04/01 12:50:51;;;;;;;0.40;0.30;;;22.20;51.30;;;;;;5072483;28;20211;-55
2023/04/01 12:53:39;;;;;;;0.43;0.30;;;22.20;51.30;;;;;;5072650;28;20194;-56
2023/04/01 12:56:17;;;;;;;0.43;0.30;;;22.20;51.30;;;;;;5073057;28;20213;-55
2023/04/01 12:59:19;;;;;;;0.73;0.20;;;22.20;51.40;;;;;;5072935;28;20221;-56
2023/04/01 13:02:20;;;;;;;0.30;0.30;;;22.20;51.30;;;;;;5072936;28;20195;-57
2023/04/01 13:05:21;;;;;;;0.17;0.17;;;22.20;51.30;;;;;;5072842;28;20202;-55
2023/04/01 13:08:22;;;;;;;0.45;0.30;;;22.20;51.30;;;;;;5090535;28;20275;-55
2023/04/01 13:11:14;;;;;;;0.30;0.20;;;22.20;51.20;;;;;;5086286;28;20198;-57
2023/04/01 13:14:16;;;;;;;0.30;0.20;;;22.20;51.20;;;;;;5093048;28;20199;-55
2023/04/01 13:16:55;;;;;;;0.20;0.20;;;22.20;51.30;;;;;;5092733;28;20194;-56
2023/04/01 13:19:32;;;;;;;0.20;0.20;;;22.20;51.30;;;;;;5091681;28;20214;-55
2023/04/01 13:22:09;;;;;;;0.28;0.20;;;22.20;51.30;;;;;;5092019;28;20684;-55
2023/04/01 13:24:49;;;;;;;0.70;0.22;;;22.20;51.30;;;;;;5091927;28;20780;-54
2023/04/01 13:27:27;;;;;;;0.50;0.35;;;22.20;51.30;;;;;;5092475;28;20708;-56
2023/04/01 13:30:19;;;;;;;0.40;0.28;;;22.10;51.30;;;;;;5092455;28;20229;-56
2023/04/01 13:32:53;;;;;;;0.40;0.30;;;22.10;51.30;;;;;;5092446;28;20194;-57
2023/04/01 13:35:33;;;;;;;0.47;0.30;;;22.10;51.30;;;;;;5083926;28;20195;-56
2023/04/01 13:38:27;;;;;;;0.20;0.20;;;22.20;51.40;;;;;;5071945;28;20248;-53
2023/04/01 13:41:10;;;;;;;0.28;0.20;;;22.10;51.40;;;;;;5072022;28;20205;-56
2023/04/01 13:43:45;;;;;;;0.20;0.20;;;22.10;51.40;;;;;;5072007;28;20198;-53
2023/04/01 13:46:38;;;;;;;0.25;0.25;;;22.10;51.30;;;;;;5071973;28;20198;-54
2023/04/01 13:49:33;;;;;;;0.30;0.30;;;22.10;51.30;;;;;;5071671;28;20226;-57
2023/04/01 13:52:26;;;;;;;0.50;0.30;;;22.10;51.20;;;;;;5071308;28;20191;-53
2023/04/01 13:55:19;;;;;;;0.13;0.13;;;22.10;51.20;;;;;;5071301;28;20289;-52
2023/04/01 13:58:12;;;;;;;0.90;0.28;;;22.10;51.20;;;;;;5056424;28;20199;-55
2023/04/01 14:00:53;;;;;;;0.47;0.28;;;22.10;51.20;;;;;;5071958;28;20221;-54
2023/04/01 14:04:03;;;;;;;0.32;0.30;;;22.10;51.30;;;;;;5071670;28;20195;-57
2023/04/01 14:06:42;;;;;;;0.20;0.20;;;22.10;51.30;;;;;;5071498;28;20195;-54